sensor_id;sensor_type;location;lat;lon;timestamp;P1;P2;P0
77516;PMS7003;68414;53.946;27.634;2023-07-13T00:00:12;6.233333;5.883333;4.333333
77516;PMS7003;68414;53.946;27.634;2023-07-13T00:01:11;6.200000;6.066667;4.183333
77516;PMS7003;68414;53.946;27.634;2023-07-13T00:03:11;6.433333;5.850000;4.500000
77516;PMS7003;68414;53.946;27.634;2023-07-13T00:04:13;5.533333;5.333333;4.183333
77516;PMS7003;68414;53.946;27.634;2023-07-13T00:05:14;5.533333;5.533333;4.633333
77516;PMS7003;68414;53.946;27.634;2023-07-13T00:06:11;6.883333;6.883333;5.500000
77516;PMS7003;68414;53.946;27.634;2023-07-13T00:07:13;6.283333;6.166667;4.466667
77516;PMS7003;68414;53.946;27.634;2023-07-13T00:08:11;7.816667;6.900000;5.150000
77516;PMS7003;68414;53.946;27.634;2023-07-13T00:10:11;6.716667;6.100000;4.383333
77516;PMS7003;68414;53.946;27.634;2023-07-13T00:11:11;6.366667;5.833333;4.850000
77516;PMS7003;68414;53.946;27.634;2023-07-13T00:13:10;5.700000;5.333333;3.750000
77516;PMS7003;68414;53.946;27.634;2023-07-13T00:14:11;6.783333;5.800000;4.100000
77516;PMS7003;68414;53.946;27.634;2023-07-13T00:15:14;6.000000;5.550000;4.300000
77516;PMS7003;68414;53.946;27.634;2023-07-13T00:16:11;5.250000;5.150000;4.316667
77516;PMS7003;68414;53.946;27.634;2023-07-13T00:17:10;6.150000;5.616667;4.183333
77516;PMS7003;68414;53.946;27.634;2023-07-13T00:18:10;6.116667;5.733333;4.383333
77516;PMS7003;68414;53.946;27.634;2023-07-13T00:19:12;5.750000;5.750000;4.466667
77516;PMS7003;68414;53.946;27.634;2023-07-13T00:20:11;5.766667;5.766667;4.200000
77516;PMS7003;68414;53.946;27.634;2023-07-13T00:21:11;5.850000;5.850000;3.500000
77516;PMS7003;68414;53.946;27.634;2023-07-13T00:22:11;7.466667;6.866667;4.600000
77516;PMS7003;68414;53.946;27.634;2023-07-13T00:23:11;5.933333;5.633333;3.983333
77516;PMS7003;68414;53.946;27.634;2023-07-13T00:24:12;5.983333;5.983333;4.333333
77516;PMS7003;68414;53.946;27.634;2023-07-13T00:25:11;5.816667;5.383333;4.266667
77516;PMS7003;68414;53.946;27.634;2023-07-13T00:26:11;6.133333;5.000000;3.816667
77516;PMS7003;68414;53.946;27.634;2023-07-13T00:27:11;6.350000;5.550000;4.066667
77516;PMS7003;68414;53.946;27.634;2023-07-13T00:28:10;5.250000;5.133333;4.033333
77516;PMS7003;68414;53.946;27.634;2023-07-13T00:29:11;5.783333;5.783333;4.083333
77516;PMS7003;68414;53.946;27.634;2023-07-13T00:30:11;6.283333;5.750000;4.083333
77516;PMS7003;68414;53.946;27.634;2023-07-13T00:31:12;5.650000;5.616667;4.183333
77516;PMS7003;68414;53.946;27.634;2023-07-13T00:32:10;4.650000;4.650000;3.533333
77516;PMS7003;68414;53.946;27.634;2023-07-13T00:33:10;5.916667;5.316667;3.983333
77516;PMS7003;68414;53.946;27.634;2023-07-13T00:34:10;6.750000;6.116667;4.416667
77516;PMS7003;68414;53.946;27.634;2023-07-13T00:35:13;5.766667;5.500000;3.716667
77516;PMS7003;68414;53.946;27.634;2023-07-13T00:36:11;5.516667;5.033333;3.650000
77516;PMS7003;68414;53.946;27.634;2023-07-13T00:37:12;6.050000;5.166667;3.716667
77516;PMS7003;68414;53.946;27.634;2023-07-13T00:38:10;5.500000;5.366667;4.083333
77516;PMS7003;68414;53.946;27.634;2023-07-13T00:39:10;5.700000;5.383333;3.800000
77516;PMS7003;68414;53.946;27.634;2023-07-13T00:40:12;6.200000;5.150000;3.633333
77516;PMS7003;68414;53.946;27.634;2023-07-13T00:41:11;6.550000;6.350000;4.483333
77516;PMS7003;68414;53.946;27.634;2023-07-13T00:42:10;6.083333;5.133333;3.783333
77516;PMS7003;68414;53.946;27.634;2023-07-13T00:43:17;4.566667;4.566667;3.816667
77516;PMS7003;68414;53.946;27.634;2023-07-13T00:44:18;5.050000;4.716667;3.783333
77516;PMS7003;68414;53.946;27.634;2023-07-13T00:47:10;5.800000;5.416667;4.250000
77516;PMS7003;68414;53.946;27.634;2023-07-13T00:49:13;5.483333;5.150000;3.783333
77516;PMS7003;68414;53.946;27.634;2023-07-13T00:50:13;5.616667;5.216667;4.000000
77516;PMS7003;68414;53.946;27.634;2023-07-13T00:51:11;6.016667;4.800000;3.833333
77516;PMS7003;68414;53.946;27.634;2023-07-13T00:52:10;4.900000;4.300000;3.700000
77516;PMS7003;68414;53.946;27.634;2023-07-13T00:53:10;6.133333;5.150000;3.866667
77516;PMS7003;68414;53.946;27.634;2023-07-13T00:54:14;7.133333;5.883333;4.250000
77516;PMS7003;68414;53.946;27.634;2023-07-13T00:55:12;5.616667;5.616667;3.983333
77516;PMS7003;68414;53.946;27.634;2023-07-13T00:56:11;5.533333;5.533333;4.516667
77516;PMS7003;68414;53.946;27.634;2023-07-13T00:57:14;4.016667;3.783333;3.100000
77516;PMS7003;68414;53.946;27.634;2023-07-13T00:58:11;5.100000;5.100000;3.433333
77516;PMS7003;68414;53.946;27.634;2023-07-13T00:59:12;5.650000;5.116667;3.500000
77516;PMS7003;68414;53.946;27.634;2023-07-13T01:00:11;5.500000;5.500000;4.183333
77516;PMS7003;68414;53.946;27.634;2023-07-13T01:01:10;4.800000;4.283333;3.550000
77516;PMS7003;68414;53.946;27.634;2023-07-13T01:02:11;5.333333;4.083333;3.316667
77516;PMS7003;68414;53.946;27.634;2023-07-13T01:03:11;5.016667;4.650000;3.500000
77516;PMS7003;68414;53.946;27.634;2023-07-13T01:04:11;4.966667;4.966667;3.566667
77516;PMS7003;68414;53.946;27.634;2023-07-13T01:05:16;5.483333;5.300000;3.166667
77516;PMS7003;68414;53.946;27.634;2023-07-13T01:06:11;5.550000;5.333333;3.816667
77516;PMS7003;68414;53.946;27.634;2023-07-13T01:07:12;5.316667;5.050000;3.916667
77516;PMS7003;68414;53.946;27.634;2023-07-13T01:08:10;4.633333;4.266667;3.133333
77516;PMS7003;68414;53.946;27.634;2023-07-13T01:09:11;5.366667;5.333333;3.850000
77516;PMS7003;68414;53.946;27.634;2023-07-13T01:10:12;4.383333;4.366667;3.533333
77516;PMS7003;68414;53.946;27.634;2023-07-13T01:11:10;4.550000;4.216667;3.450000
77516;PMS7003;68414;53.946;27.634;2023-07-13T01:12:11;5.550000;5.550000;4.116667
77516;PMS7003;68414;53.946;27.634;2023-07-13T01:13:10;4.900000;4.650000;3.800000
77516;PMS7003;68414;53.946;27.634;2023-07-13T01:14:11;6.433333;5.966667;4.466667
77516;PMS7003;68414;53.946;27.634;2023-07-13T01:17:11;6.333333;5.350000;3.966667
77516;PMS7003;68414;53.946;27.634;2023-07-13T01:18:13;5.366667;5.366667;3.783333
77516;PMS7003;68414;53.946;27.634;2023-07-13T01:20:11;3.966667;3.966667;2.900000
77516;PMS7003;68414;53.946;27.634;2023-07-13T01:21:10;5.333333;4.916667;3.700000
77516;PMS7003;68414;53.946;27.634;2023-07-13T01:22:17;5.650000;5.450000;4.183333
77516;PMS7003;68414;53.946;27.634;2023-07-13T01:23:11;5.383333;5.133333;3.883333
77516;PMS7003;68414;53.946;27.634;2023-07-13T01:24:10;5.466667;4.550000;3.716667
77516;PMS7003;68414;53.946;27.634;2023-07-13T01:25:10;6.016667;5.000000;3.783333
77516;PMS7003;68414;53.946;27.634;2023-07-13T01:26:11;4.650000;4.433333;3.666667
77516;PMS7003;68414;53.946;27.634;2023-07-13T01:27:13;5.416667;5.116667;3.766667
77516;PMS7003;68414;53.946;27.634;2023-07-13T01:28:10;5.200000;4.733333;3.600000
77516;PMS7003;68414;53.946;27.634;2023-07-13T01:29:10;6.250000;4.933333;3.400000
77516;PMS7003;68414;53.946;27.634;2023-07-13T01:30:11;5.000000;4.616667;3.700000
77516;PMS7003;68414;53.946;27.634;2023-07-13T01:31:11;5.566667;5.533333;3.933333
77516;PMS7003;68414;53.946;27.634;2023-07-13T01:32:14;5.916667;5.200000;4.250000
77516;PMS7003;68414;53.946;27.634;2023-07-13T01:33:13;4.450000;4.450000;3.483333
77516;PMS7003;68414;53.946;27.634;2023-07-13T01:34:10;4.716667;4.450000;3.650000
77516;PMS7003;68414;53.946;27.634;2023-07-13T01:35:10;4.550000;4.550000;3.183333
77516;PMS7003;68414;53.946;27.634;2023-07-13T01:36:11;5.533333;5.383333;3.500000
77516;PMS7003;68414;53.946;27.634;2023-07-13T01:37:11;4.866667;4.700000;3.883333
77516;PMS7003;68414;53.946;27.634;2023-07-13T01:38:11;5.416667;4.816667;4.150000
77516;PMS7003;68414;53.946;27.634;2023-07-13T01:39:10;4.833333;4.383333;3.566667
77516;PMS7003;68414;53.946;27.634;2023-07-13T01:40:12;4.700000;4.700000;3.950000
77516;PMS7003;68414;53.946;27.634;2023-07-13T01:41:10;5.100000;5.016667;3.883333
77516;PMS7003;68414;53.946;27.634;2023-07-13T01:42:13;5.216667;5.116667;4.066667
77516;PMS7003;68414;53.946;27.634;2023-07-13T01:43:11;5.466667;5.466667;4.166667
77516;PMS7003;68414;53.946;27.634;2023-07-13T01:44:10;4.716667;4.700000;4.016667
77516;PMS7003;68414;53.946;27.634;2023-07-13T01:45:10;5.666667;5.366667;3.933333
77516;PMS7003;68414;53.946;27.634;2023-07-13T01:46:10;5.833333;5.366667;3.966667
77516;PMS7003;68414;53.946;27.634;2023-07-13T01:47:10;5.783333;5.166667;4.266667
77516;PMS7003;68414;53.946;27.634;2023-07-13T01:48:11;6.583333;6.216667;4.416667
77516;PMS7003;68414;53.946;27.634;2023-07-13T01:49:10;6.316667;5.833333;4.083333
77516;PMS7003;68414;53.946;27.634;2023-07-13T01:50:10;5.783333;4.900000;3.466667
77516;PMS7003;68414;53.946;27.634;2023-07-13T01:51:10;5.083333;4.800000;3.566667
77516;PMS7003;68414;53.946;27.634;2023-07-13T01:52:10;5.350000;4.316667;3.200000
77516;PMS7003;68414;53.946;27.634;2023-07-13T01:53:10;4.466667;4.350000;3.366667
77516;PMS7003;68414;53.946;27.634;2023-07-13T01:54:10;4.666667;4.316667;3.250000
77516;PMS7003;68414;53.946;27.634;2023-07-13T01:55:10;5.133333;5.133333;4.416667
77516;PMS7003;68414;53.946;27.634;2023-07-13T01:56:12;5.433333;5.200000;3.533333
77516;PMS7003;68414;53.946;27.634;2023-07-13T01:57:10;6.000000;5.483333;3.900000
77516;PMS7003;68414;53.946;27.634;2023-07-13T01:58:10;4.950000;4.950000;3.350000
77516;PMS7003;68414;53.946;27.634;2023-07-13T01:59:10;4.500000;4.166667;3.200000
77516;PMS7003;68414;53.946;27.634;2023-07-13T02:00:13;4.950000;4.750000;3.466667
77516;PMS7003;68414;53.946;27.634;2023-07-13T02:01:10;5.750000;5.166667;3.750000
77516;PMS7003;68414;53.946;27.634;2023-07-13T02:02:10;5.383333;4.683333;3.666667
77516;PMS7003;68414;53.946;27.634;2023-07-13T02:03:10;5.433333;4.833333;3.933333
77516;PMS7003;68414;53.946;27.634;2023-07-13T02:04:10;5.316667;5.233333;3.950000
77516;PMS7003;68414;53.946;27.634;2023-07-13T02:05:11;4.950000;4.766667;3.866667
77516;PMS7003;68414;53.946;27.634;2023-07-13T02:06:10;5.033333;4.766667;3.600000
77516;PMS7003;68414;53.946;27.634;2023-07-13T02:07:10;4.816667;4.400000;3.383333
77516;PMS7003;68414;53.946;27.634;2023-07-13T02:08:11;4.266667;4.033333;3.516667
77516;PMS7003;68414;53.946;27.634;2023-07-13T02:09:10;5.033333;5.033333;3.816667
77516;PMS7003;68414;53.946;27.634;2023-07-13T02:10:12;4.833333;4.833333;3.533333
77516;PMS7003;68414;53.946;27.634;2023-07-13T02:11:11;5.066667;5.066667;3.516667
77516;PMS7003;68414;53.946;27.634;2023-07-13T02:12:10;4.716667;4.366667;3.300000
77516;PMS7003;68414;53.946;27.634;2023-07-13T02:13:11;4.500000;4.500000;3.450000
77516;PMS7003;68414;53.946;27.634;2023-07-13T02:14:10;5.033333;4.616667;4.033333
77516;PMS7003;68414;53.946;27.634;2023-07-13T02:15:11;4.833333;4.750000;3.766667
77516;PMS7003;68414;53.946;27.634;2023-07-13T02:16:10;4.200000;4.200000;3.400000
77516;PMS7003;68414;53.946;27.634;2023-07-13T02:17:11;4.383333;4.033333;3.466667
77516;PMS7003;68414;53.946;27.634;2023-07-13T02:18:10;5.300000;4.166667;3.600000
77516;PMS7003;68414;53.946;27.634;2023-07-13T02:19:10;4.500000;4.500000;3.233333
77516;PMS7003;68414;53.946;27.634;2023-07-13T02:20:10;4.933333;4.783333;3.250000
77516;PMS7003;68414;53.946;27.634;2023-07-13T02:21:10;4.500000;4.500000;3.083333
77516;PMS7003;68414;53.946;27.634;2023-07-13T02:22:10;4.350000;4.350000;3.383333
77516;PMS7003;68414;53.946;27.634;2023-07-13T02:23:11;5.600000;5.066667;4.066667
77516;PMS7003;68414;53.946;27.634;2023-07-13T02:24:10;5.583333;5.583333;4.450000
77516;PMS7003;68414;53.946;27.634;2023-07-13T02:25:10;7.700000;7.166667;5.233333
77516;PMS7003;68414;53.946;27.634;2023-07-13T02:26:10;14.150000;12.333333;9.266666
77516;PMS7003;68414;53.946;27.634;2023-07-13T02:27:10;7.250000;7.250000;5.466667
77516;PMS7003;68414;53.946;27.634;2023-07-13T02:28:10;5.283333;5.050000;3.800000
77516;PMS7003;68414;53.946;27.634;2023-07-13T02:29:10;5.683333;5.016667;3.383333
77516;PMS7003;68414;53.946;27.634;2023-07-13T02:30:11;5.083333;4.250000;3.683333
77516;PMS7003;68414;53.946;27.634;2023-07-13T02:31:13;4.766667;4.566667;4.183333
77516;PMS7003;68414;53.946;27.634;2023-07-13T02:32:10;5.816667;5.816667;4.266667
77516;PMS7003;68414;53.946;27.634;2023-07-13T02:33:10;5.800000;5.800000;4.450000
77516;PMS7003;68414;53.946;27.634;2023-07-13T02:34:10;7.916667;7.733333;5.933333
77516;PMS7003;68414;53.946;27.634;2023-07-13T02:35:10;6.383333;6.250000;5.250000
77516;PMS7003;68414;53.946;27.634;2023-07-13T02:36:11;9.200000;9.066667;7.366667
77516;PMS7003;68414;53.946;27.634;2023-07-13T02:37:10;13.500000;13.066667;10.366667
77516;PMS7003;68414;53.946;27.634;2023-07-13T02:38:10;18.683332;16.116667;11.266666
77516;PMS7003;68414;53.946;27.634;2023-07-13T02:39:12;16.666666;14.983334;11.633333
77516;PMS7003;68414;53.946;27.634;2023-07-13T02:40:10;17.966667;16.083334;11.583333
77516;PMS7003;68414;53.946;27.634;2023-07-13T02:41:10;14.900000;14.066667;10.166667
77516;PMS7003;68414;53.946;27.634;2023-07-13T02:42:10;16.883333;15.466666;11.533334
77516;PMS7003;68414;53.946;27.634;2023-07-13T02:43:10;16.166666;15.200000;10.900000
77516;PMS7003;68414;53.946;27.634;2023-07-13T02:44:12;17.383333;16.366667;11.350000
77516;PMS7003;68414;53.946;27.634;2023-07-13T02:45:10;18.716667;17.383333;13.033334
77516;PMS7003;68414;53.946;27.634;2023-07-13T02:46:10;18.283333;16.016666;11.750000
77516;PMS7003;68414;53.946;27.634;2023-07-13T02:47:11;20.366667;18.100000;12.033334
77516;PMS7003;68414;53.946;27.634;2023-07-13T02:48:10;19.333334;18.216667;11.916667
77516;PMS7003;68414;53.946;27.634;2023-07-13T02:49:10;16.916666;15.766666;11.650000
77516;PMS7003;68414;53.946;27.634;2023-07-13T02:50:10;19.950001;18.016666;11.633333
77516;PMS7003;68414;53.946;27.634;2023-07-13T02:51:10;18.883333;16.299999;11.050000
77516;PMS7003;68414;53.946;27.634;2023-07-13T02:52:10;16.183332;15.266666;11.450000
77516;PMS7003;68414;53.946;27.634;2023-07-13T02:53:10;19.100000;17.316668;11.700000
77516;PMS7003;68414;53.946;27.634;2023-07-13T02:54:10;18.483334;17.433332;11.866667
77516;PMS7003;68414;53.946;27.634;2023-07-13T02:55:10;17.766666;17.000000;12.016666
77516;PMS7003;68414;53.946;27.634;2023-07-13T02:56:10;18.299999;17.366667;13.266666
77516;PMS7003;68414;53.946;27.634;2023-07-13T02:57:10;21.833334;20.933332;16.216667
77516;PMS7003;68414;53.946;27.634;2023-07-13T02:58:10;18.100000;16.966667;13.216666
77516;PMS7003;68414;53.946;27.634;2023-07-13T02:59:10;27.116667;26.266666;18.283333
77516;PMS7003;68414;53.946;27.634;2023-07-13T03:00:11;28.150000;27.283333;19.783333
77516;PMS7003;68414;53.946;27.634;2023-07-13T03:01:11;24.850000;23.383333;16.783333
77516;PMS7003;68414;53.946;27.634;2023-07-13T03:02:10;15.933333;14.950000;11.000000
77516;PMS7003;68414;53.946;27.634;2023-07-13T03:03:10;15.666667;14.633333;10.900000
77516;PMS7003;68414;53.946;27.634;2023-07-13T03:04:12;17.566668;16.183332;11.383333
77516;PMS7003;68414;53.946;27.634;2023-07-13T03:05:10;14.166667;13.200000;10.483334
77516;PMS7003;68414;53.946;27.634;2023-07-13T03:06:10;15.750000;14.050000;10.983334
77516;PMS7003;68414;53.946;27.634;2023-07-13T03:07:10;17.483334;16.566668;11.800000
77516;PMS7003;68414;53.946;27.634;2023-07-13T03:08:11;19.683332;18.450001;13.033334
77516;PMS7003;68414;53.946;27.634;2023-07-13T03:09:10;17.700001;17.316668;13.216666
77516;PMS7003;68414;53.946;27.634;2023-07-13T03:10:10;20.733334;19.033333;13.233334
77516;PMS7003;68414;53.946;27.634;2023-07-13T03:11:13;20.116667;18.850000;13.033334
77516;PMS7003;68414;53.946;27.634;2023-07-13T03:12:10;21.799999;19.666666;13.366667
77516;PMS7003;68414;53.946;27.634;2023-07-13T03:13:10;20.533333;19.266666;14.133333
77516;PMS7003;68414;53.946;27.634;2023-07-13T03:14:10;18.333334;17.900000;11.450000
77516;PMS7003;68414;53.946;27.634;2023-07-13T03:15:10;15.716666;15.716666;12.083333
77516;PMS7003;68414;53.946;27.634;2023-07-13T03:16:11;20.216667;19.183332;13.416667
77516;PMS7003;68414;53.946;27.634;2023-07-13T03:17:10;24.700001;22.450001;15.350000
77516;PMS7003;68414;53.946;27.634;2023-07-13T03:18:10;23.066668;21.600000;15.083333
77516;PMS7003;68414;53.946;27.634;2023-07-13T03:19:10;24.833334;22.483334;16.283333
77516;PMS7003;68414;53.946;27.634;2023-07-13T03:20:11;27.400000;25.183332;17.416666
77516;PMS7003;68414;53.946;27.634;2023-07-13T03:21:10;25.616667;23.966667;17.083334
77516;PMS7003;68414;53.946;27.634;2023-07-13T03:22:10;31.583334;28.383333;19.983334
77516;PMS7003;68414;53.946;27.634;2023-07-13T03:23:10;33.799999;31.416666;20.483334
77516;PMS7003;68414;53.946;27.634;2023-07-13T03:24:10;35.466667;31.816668;21.600000
77516;PMS7003;68414;53.946;27.634;2023-07-13T03:25:10;36.750000;32.566666;22.366667
77516;PMS7003;68414;53.946;27.634;2023-07-13T03:26:14;37.000000;33.033333;22.799999
77516;PMS7003;68414;53.946;27.634;2023-07-13T03:27:11;38.683334;34.000000;23.133333
77516;PMS7003;68414;53.946;27.634;2023-07-13T03:28:11;38.766666;34.099998;24.150000
77516;PMS7003;68414;53.946;27.634;2023-07-13T03:29:10;35.216667;32.266666;22.400000
77516;PMS7003;68414;53.946;27.634;2023-07-13T03:30:11;37.166668;32.950001;22.833334
77516;PMS7003;68414;53.946;27.634;2023-07-13T03:32:10;34.016666;31.783333;22.450001
77516;PMS7003;68414;53.946;27.634;2023-07-13T03:33:10;38.766666;34.250000;23.233334
77516;PMS7003;68414;53.946;27.634;2023-07-13T03:34:10;40.566666;35.766666;23.983334
77516;PMS7003;68414;53.946;27.634;2023-07-13T03:35:10;43.216667;36.233334;23.966667
77516;PMS7003;68414;53.946;27.634;2023-07-13T03:36:14;45.766666;37.866665;25.483334
77516;PMS7003;68414;53.946;27.634;2023-07-13T03:37:10;47.666668;39.566666;26.883333
77516;PMS7003;68414;53.946;27.634;2023-07-13T03:38:10;44.950001;38.250000;26.683332
77516;PMS7003;68414;53.946;27.634;2023-07-13T03:39:10;49.383335;41.283333;28.016666
77516;PMS7003;68414;53.946;27.634;2023-07-13T03:40:11;53.933334;44.266666;29.250000
77516;PMS7003;68414;53.946;27.634;2023-07-13T03:41:10;55.583332;45.083332;29.750000
77516;PMS7003;68414;53.946;27.634;2023-07-13T03:42:10;59.700001;48.166668;32.316666
77516;PMS7003;68414;53.946;27.634;2023-07-13T03:43:10;60.900002;49.750000;33.316666
77516;PMS7003;68414;53.946;27.634;2023-07-13T03:44:11;62.833332;50.583332;33.616665
77516;PMS7003;68414;53.946;27.634;2023-07-13T03:45:10;65.099998;52.716667;35.099998
77516;PMS7003;68414;53.946;27.634;2023-07-13T03:46:10;62.716667;50.366665;33.866665
77516;PMS7003;68414;53.946;27.634;2023-07-13T03:47:10;64.316666;52.150002;35.266666
77516;PMS7003;68414;53.946;27.634;2023-07-13T03:48:10;62.333332;50.466667;34.083332
77516;PMS7003;68414;53.946;27.634;2023-07-13T03:49:10;54.366665;45.066666;30.016666
77516;PMS7003;68414;53.946;27.634;2023-07-13T03:50:11;49.716667;41.450001;27.933332
77516;PMS7003;68414;53.946;27.634;2023-07-13T03:51:11;41.883335;35.849998;24.966667
77516;PMS7003;68414;53.946;27.634;2023-07-13T03:52:10;34.683334;32.266666;22.700001
77516;PMS7003;68414;53.946;27.634;2023-07-13T03:53:10;23.783333;22.600000;15.700000
77516;PMS7003;68414;53.946;27.634;2023-07-13T03:54:10;23.299999;22.666666;17.083334
77516;PMS7003;68414;53.946;27.634;2023-07-13T03:55:10;21.333334;20.100000;14.466666
77516;PMS7003;68414;53.946;27.634;2023-07-13T03:56:11;17.466667;17.400000;13.616667
77516;PMS7003;68414;53.946;27.634;2023-07-13T03:57:10;13.216666;13.016666;10.933333
77516;PMS7003;68414;53.946;27.634;2023-07-13T03:59:10;16.299999;15.783334;12.566667
77516;PMS7003;68414;53.946;27.634;2023-07-13T04:00:11;21.533333;19.716667;14.716666
77516;PMS7003;68414;53.946;27.634;2023-07-13T04:01:12;17.700001;17.250000;13.433333
77516;PMS7003;68414;53.946;27.634;2023-07-13T04:02:10;13.716666;13.466666;10.416667
77516;PMS7003;68414;53.946;27.634;2023-07-13T04:03:10;17.400000;16.299999;12.050000
77516;PMS7003;68414;53.946;27.634;2023-07-13T04:04:10;14.133333;13.700000;10.166667
77516;PMS7003;68414;53.946;27.634;2023-07-13T04:05:10;13.050000;13.050000;10.016666
77516;PMS7003;68414;53.946;27.634;2023-07-13T04:07:10;14.166667;13.700000;10.283334
77516;PMS7003;68414;53.946;27.634;2023-07-13T04:08:10;14.416667;12.250000;9.983334
77516;PMS7003;68414;53.946;27.634;2023-07-13T04:09:10;12.950000;11.983334;9.233334
77516;PMS7003;68414;53.946;27.634;2023-07-13T04:10:10;14.050000;13.450000;10.316667
77516;PMS7003;68414;53.946;27.634;2023-07-13T04:11:10;12.400000;12.066667;9.383333
77516;PMS7003;68414;53.946;27.634;2023-07-13T04:12:10;11.516666;10.916667;8.066667
77516;PMS7003;68414;53.946;27.634;2023-07-13T04:13:10;12.166667;11.583333;8.100000
77516;PMS7003;68414;53.946;27.634;2023-07-13T04:14:10;10.033334;9.500000;7.616667
77516;PMS7003;68414;53.946;27.634;2023-07-13T04:15:10;9.216666;9.200000;7.450000
77516;PMS7003;68414;53.946;27.634;2023-07-13T04:16:10;11.816667;10.933333;8.200000
77516;PMS7003;68414;53.946;27.634;2023-07-13T04:17:10;9.733334;9.266666;6.800000
77516;PMS7003;68414;53.946;27.634;2023-07-13T04:18:10;10.333333;9.616667;7.166667
77516;PMS7003;68414;53.946;27.634;2023-07-13T04:19:10;10.283334;10.183333;8.333333
77516;PMS7003;68414;53.946;27.634;2023-07-13T04:20:10;9.116667;8.750000;6.783333
77516;PMS7003;68414;53.946;27.634;2023-07-13T04:21:11;7.683333;7.483333;6.100000
77516;PMS7003;68414;53.946;27.634;2023-07-13T04:22:10;7.633333;7.150000;5.633333
77516;PMS7003;68414;53.946;27.634;2023-07-13T04:23:10;12.300000;10.750000;7.366667
77516;PMS7003;68414;53.946;27.634;2023-07-13T04:24:12;10.383333;10.366667;7.683333
77516;PMS7003;68414;53.946;27.634;2023-07-13T04:25:10;9.283334;9.266666;7.050000
77516;PMS7003;68414;53.946;27.634;2023-07-13T04:26:10;11.883333;11.166667;8.400000
77516;PMS7003;68414;53.946;27.634;2023-07-13T04:27:10;9.850000;9.833333;7.383333
77516;PMS7003;68414;53.946;27.634;2023-07-13T04:28:10;9.916667;9.366667;6.933333
77516;PMS7003;68414;53.946;27.634;2023-07-13T04:29:10;11.200000;10.250000;7.383333
77516;PMS7003;68414;53.946;27.634;2023-07-13T04:30:10;9.066667;8.550000;6.966667
77516;PMS7003;68414;53.946;27.634;2023-07-13T04:31:10;11.200000;9.733334;7.150000
77516;PMS7003;68414;53.946;27.634;2023-07-13T04:32:10;8.900000;8.250000;6.916667
77516;PMS7003;68414;53.946;27.634;2023-07-13T04:33:10;9.850000;9.566667;7.250000
77516;PMS7003;68414;53.946;27.634;2023-07-13T04:34:10;9.933333;9.200000;6.133333
77516;PMS7003;68414;53.946;27.634;2023-07-13T04:35:10;8.866667;8.866667;7.166667
77516;PMS7003;68414;53.946;27.634;2023-07-13T04:36:10;10.700000;9.950000;7.866667
77516;PMS7003;68414;53.946;27.634;2023-07-13T04:37:10;6.966667;6.933333;6.033333
77516;PMS7003;68414;53.946;27.634;2023-07-13T04:38:10;9.300000;9.033334;6.466667
77516;PMS7003;68414;53.946;27.634;2023-07-13T04:39:10;10.150000;9.866667;7.483333
77516;PMS7003;68414;53.946;27.634;2023-07-13T04:40:11;9.950000;8.866667;7.233333
77516;PMS7003;68414;53.946;27.634;2023-07-13T04:41:11;10.750000;10.033334;7.783333
77516;PMS7003;68414;53.946;27.634;2023-07-13T04:42:10;9.400000;9.250000;7.150000
77516;PMS7003;68414;53.946;27.634;2023-07-13T04:43:12;8.933333;8.350000;6.633333
77516;PMS7003;68414;53.946;27.634;2023-07-13T04:44:10;10.066667;9.850000;7.183333
77516;PMS7003;68414;53.946;27.634;2023-07-13T04:45:11;9.050000;8.533334;6.683333
77516;PMS7003;68414;53.946;27.634;2023-07-13T04:46:12;10.366667;9.600000;7.700000
77516;PMS7003;68414;53.946;27.634;2023-07-13T04:47:10;9.566667;8.983334;6.666667
77516;PMS7003;68414;53.946;27.634;2023-07-13T04:48:10;10.450000;10.450000;7.433333
77516;PMS7003;68414;53.946;27.634;2023-07-13T04:49:10;10.183333;9.966666;6.866667
77516;PMS7003;68414;53.946;27.634;2023-07-13T04:50:12;11.366667;10.983334;7.966667
77516;PMS7003;68414;53.946;27.634;2023-07-13T04:51:10;10.483334;10.450000;8.100000
77516;PMS7003;68414;53.946;27.634;2023-07-13T04:52:11;12.483334;12.150000;9.416667
77516;PMS7003;68414;53.946;27.634;2023-07-13T04:53:10;12.416667;11.650000;8.316667
77516;PMS7003;68414;53.946;27.634;2023-07-13T04:54:10;10.083333;10.083333;7.950000
77516;PMS7003;68414;53.946;27.634;2023-07-13T04:55:10;10.800000;10.366667;8.033334
77516;PMS7003;68414;53.946;27.634;2023-07-13T04:56:10;10.816667;10.550000;7.800000
77516;PMS7003;68414;53.946;27.634;2023-07-13T04:57:10;10.416667;9.483334;7.300000
77516;PMS7003;68414;53.946;27.634;2023-07-13T04:58:10;9.183333;8.733334;6.116667
77516;PMS7003;68414;53.946;27.634;2023-07-13T04:59:10;9.350000;8.433333;6.450000
77516;PMS7003;68414;53.946;27.634;2023-07-13T05:00:11;10.733334;10.583333;8.916667
77516;PMS7003;68414;53.946;27.634;2023-07-13T05:01:10;13.516666;13.150000;10.400000
77516;PMS7003;68414;53.946;27.634;2023-07-13T05:02:10;11.100000;10.866667;8.816667